Time;durP1;ratioP1;P1;durP2;ratioP2;P2;SDS_P1;SDS_P2;PMS_P1;PMS_P2;Temp;Humidity;BMP_temperature;BMP_pressure;BME280_temperature;BME280_humidity;BME280_pressure;Samples;Min_cycle;Max_cycle;Signal;HPM_P1;HPM_P2
2022/03/23 00:01:25;;;;;;;221.93;137.05;;;;;;;1.37;57.18;102058.77;1756066;81;25750;-71
2022/03/23 00:03:52;;;;;;;209.18;132.65;;;;;;;1.34;57.05;102059.98;1739053;82;25589;-73
2022/03/23 00:33:56;;;;;;;215.90;82.35;;;;;;;0.96;58.89;102057.88;1738777;82;26486;-73
2022/03/23 00:36:24;;;;;;;223.70;83.07;;;;;;;0.89;59.20;102060.52;1739561;82;25720;-73
2022/03/23 00:38:53;;;;;;;202.40;85.97;;;;;;;0.87;59.57;102058.58;1739140;82;25630;-73
2022/03/23 00:41:19;;;;;;;226.37;86.22;;;;;;;0.81;59.56;102055.38;1740459;82;25592;-73
2022/03/23 00:43:45;;;;;;;229.63;140.03;;;;;;;0.80;59.85;102063.56;1740858;82;25597;-73
2022/03/23 00:46:11;;;;;;;209.35;103.25;;;;;;;0.73;60.41;102049.73;1740899;82;27348;-73
2022/03/23 00:48:38;;;;;;;213.47;82.88;;;;;;;0.75;60.39;102056.19;1770912;80;25537;-73
2022/03/23 00:51:05;;;;;;;205.72;86.28;;;;;;;0.74;60.14;102055.34;1740733;82;25463;-73
2022/03/23 00:53:31;;;;;;;200.40;84.25;;;;;;;0.73;60.36;102052.39;1738396;82;25900;-73
2022/03/23 00:55:58;;;;;;;199.40;83.12;;;;;;;0.72;60.55;102049.92;1740095;82;25694;-73
2022/03/23 00:58:24;;;;;;;181.10;77.62;;;;;;;0.76;61.13;102041.02;1739417;82;27880;-73
2022/03/23 01:00:51;;;;;;;179.18;81.67;;;;;;;0.85;62.07;102047.80;1740962;82;25624;-73
2022/03/23 01:03:17;;;;;;;190.97;84.92;;;;;;;0.93;62.19;102037.77;1743247;82;25402;-74
2022/03/23 01:05:44;;;;;;;169.90;74.75;;;;;;;0.97;61.71;102038.22;1734410;82;25439;-74
2022/03/23 01:08:10;;;;;;;153.25;68.55;;;;;;;0.97;61.51;102033.37;1734505;82;25392;-74
2022/03/23 01:10:37;;;;;;;163.77;75.37;;;;;;;0.99;61.47;102028.66;1734468;82;27410;-74
2022/03/23 01:13:03;;;;;;;192.18;119.40;;;;;;;0.98;61.56;102043.84;1734382;82;25408;-74
2022/03/23 01:15:30;;;;;;;194.72;130.35;;;;;;;0.97;61.53;102040.88;1734432;82;25415;-73
2022/03/23 01:17:56;;;;;;;200.80;128.10;;;;;;;0.90;61.46;102028.88;1734392;82;25406;-73
2022/03/23 01:20:24;;;;;;;194.70;131.70;;;;;;;0.87;61.33;102020.44;1734464;82;25641;-73
2022/03/23 01:22:51;;;;;;;198.85;131.63;;;;;;;0.85;60.75;102023.82;1734548;82;27894;-73
2022/03/23 01:25:18;;;;;;;201.55;131.78;;;;;;;0.86;61.70;102029.47;1734498;82;25468;-73
2022/03/23 01:27:46;;;;;;;195.80;127.75;;;;;;;0.88;62.00;102028.75;1734606;82;25377;-73
2022/03/23 01:30:15;;;;;;;197.98;131.10;;;;;;;0.85;61.72;102027.33;1734573;82;25860;-74
2022/03/23 01:32:43;;;;;;;226.92;135.07;;;;;;;0.81;60.98;102026.06;1734615;82;25411;-74
2022/03/23 01:35:11;;;;;;;143.33;93.20;;;;;;;0.76;60.79;102029.03;1734828;82;27937;-74
2022/03/23 01:37:39;;;;;;;199.68;129.32;;;;;;;0.72;60.86;102023.29;1734471;82;25552;-73
2022/03/23 01:40:10;;;;;;;205.98;128.15;;;;;;;0.68;60.65;102023.36;1734554;82;25475;-73
2022/03/23 01:42:38;;;;;;;177.17;120.60;;;;;;;0.63;61.38;102021.33;1734556;82;25393;-74
2022/03/23 01:45:08;;;;;;;174.82;120.10;;;;;;;0.59;61.71;102017.92;1734598;82;25680;-74
2022/03/23 01:47:35;;;;;;;179.42;120.57;;;;;;;0.67;61.94;102044.38;1734657;82;27945;-74
2022/03/23 01:50:05;;;;;;;177.02;118.97;;;;;;;0.46;62.12;102009.36;1734527;82;25395;-74
2022/03/23 01:52:32;;;;;;;;;;;;;;;0.45;61.67;102015.20;1737190;82;25556;-74
2022/03/23 01:55:06;;;;;;;171.37;115.77;;;;;;;0.44;62.13;102012.73;1734554;82;25653;-74
2022/03/23 01:57:32;;;;;;;172.02;118.65;;;;;;;0.38;63.34;102006.89;1734050;82;25427;-73
2022/03/23 01:59:59;;;;;;;161.90;113.80;;;;;;;0.38;63.34;102006.89;1734565;82;27528;-73
2022/03/23 02:02:25;;;;;;;183.25;120.53;;;;;;;0.37;63.19;102008.71;1739484;81;25427;-73
2022/03/23 02:04:51;;;;;;;193.28;125.95;;;;;;;0.36;63.21;102003.09;1754407;81;25387;-73
2022/03/23 02:07:19;;;;;;;189.25;123.92;;;;;;;0.35;63.12;101998.78;1754369;81;25411;-73
2022/03/23 02:09:46;;;;;;;192.10;123.07;;;;;;;0.31;63.18;101995.70;1754446;81;25531;-73
2022/03/23 02:12:12;;;;;;;169.72;121.33;;;;;;;0.27;63.02;101993.63;1754396;81;27143;-73
2022/03/23 02:14:39;;;;;;;177.57;118.67;;;;;;;0.24;63.05;101990.86;1754332;81;25739;-73
2022/03/23 02:17:06;;;;;;;179.05;118.25;;;;;;;0.20;63.28;101996.25;1754395;81;25545;-73
2022/03/23 02:19:35;;;;;;;181.20;118.10;;;;;;;0.15;63.53;101990.22;1754408;81;25590;-73
2022/03/23 02:22:02;;;;;;;170.77;118.42;;;;;;;0.12;64.00;101989.77;1754418;81;25460;-73
2022/03/23 02:24:31;;;;;;;174.55;119.90;;;;;;;0.12;64.00;101989.77;1754426;81;27381;-72
2022/03/23 02:26:59;;;;;;;177.53;120.13;;;;;;;0.09;63.81;101995.50;1754280;81;25632;-73
2022/03/23 02:29:30;;;;;;;163.90;114.32;;;;;;;0.04;64.04;101988.63;1754423;81;25588;-73
2022/03/23 02:31:58;;;;;;;170.10;117.20;;;;;;;0.04;64.04;101988.63;1754329;81;25613;-73
2022/03/23 02:34:25;;;;;;;168.25;115.20;;;;;;;0.07;64.26;101998.36;1754389;81;25621;-72
2022/03/23 02:36:53;;;;;;;147.28;110.83;;;;;;;0.01;64.70;101989.82;1754356;81;27888;-72
2022/03/23 02:39:19;;;;;;;145.92;110.48;;;;;;;-0.02;64.55;101992.87;1754244;81;25796;-72
2022/03/23 02:41:46;;;;;;;150.65;113.03;;;;;;;-0.04;64.87;101990.41;1754359;81;25599;-72
2022/03/23 02:44:17;;;;;;;142.40;108.80;;;;;;;-0.02;64.55;101992.87;1724718;81;26238;-72
2022/03/23 02:46:44;;;;;;;151.27;111.95;;;;;;;-0.04;64.57;101994.91;1754365;81;25541;-72
2022/03/23 02:49:11;;;;;;;157.40;113.40;;;;;;;-0.06;64.30;101988.45;1754350;81;28064;-72
2022/03/23 02:51:38;;;;;;;144.95;111.08;;;;;;;-0.10;64.84;101987.70;1754329;81;25585;-72
2022/03/23 03:02:39;;;;;;;144.95;115.05;;;;;;;-0.20;64.17;101985.41;1627971;87;27413;-72
2022/03/23 03:05:11;;;;;;;120.55;83.85;;;;;;;-0.22;64.81;101978.14;1645460;87;25760;-72
2022/03/23 03:10:26;;;;;;;146.80;112.32;;;;;;;-0.30;65.24;101965.81;1645313;87;25638;-71
2022/03/23 03:12:54;;;;;;;130.72;107.12;;;;;;;-0.31;66.80;101970.80;1645521;87;25697;-72
2022/03/23 03:15:22;;;;;;;121.53;53.48;;;;;;;-0.27;66.07;101969.42;1645345;87;28109;-72
2022/03/23 03:17:48;;;;;;;119.97;54.05;;;;;;;-0.26;66.22;101970.23;1645205;87;25748;-73
2022/03/23 03:20:16;;;;;;;118.37;54.18;;;;;;;-0.26;67.98;101972.37;1645383;87;25589;-73
2022/03/23 03:22:45;;;;;;;111.70;52.90;;;;;;;-0.24;68.48;101965.53;1645327;87;25775;-73
2022/03/23 03:25:15;;;;;;;109.15;53.45;;;;;;;-0.15;69.09;101959.53;1645525;87;25644;-73
2022/03/23 03:27:43;;;;;;;108.63;49.08;;;;;;;-0.04;70.60;101952.34;1645328;87;28233;-73
2022/03/23 03:30:13;;;;;;;95.12;45.10;;;;;;;0.13;71.80;101949.65;1645236;87;25566;-73
2022/03/23 03:32:41;;;;;;;139.07;111.00;;;;;;;0.28;70.42;101950.84;1645328;87;25730;-73
2022/03/23 03:35:09;;;;;;;103.87;52.53;;;;;;;0.35;70.72;101938.88;1645293;87;25625;-73
2022/03/23 03:37:36;;;;;;;92.47;43.02;;;;;;;0.50;70.50;101932.88;1734530;81;25549;-73
2022/03/23 03:40:05;;;;;;;94.83;44.75;;;;;;;0.63;71.06;101941.91;1757835;81;27324;-73
2022/03/23 03:42:32;;;;;;;95.67;45.60;;;;;;;0.74;70.50;101935.48;1757933;81;25380;-73
2022/03/23 03:44:58;;;;;;;98.25;43.33;;;;;;;0.84;70.02;101935.61;1757870;80;25619;-73
2022/03/23 03:47:25;;;;;;;108.52;50.25;;;;;;;0.89;69.94;101931.30;1757798;80;25661;-73
2022/03/23 03:49:52;;;;;;;108.03;50.38;;;;;;;0.95;69.63;101937.65;1757838;81;25586;-73
2022/03/23 03:52:19;;;;;;;128.45;57.00;;;;;;;1.02;69.21;101937.16;1757802;81;27402;-73
2022/03/23 03:54:45;;;;;;;116.28;54.45;;;;;;;1.06;68.21;101941.56;1757751;81;25633;-73
2022/03/23 03:57:12;;;;;;;118.62;54.65;;;;;;;1.06;67.21;101938.91;1757815;81;25592;-73
2022/03/23 03:59:39;;;;;;;108.35;49.05;;;;;;;1.02;67.01;101934.50;1757759;81;25637;-73
2022/03/23 04:02:06;;;;;;;102.35;46.68;;;;;;;0.99;66.71;101928.23;1757814;81;25618;-73
2022/03/23 04:04:33;;;;;;;126.05;108.65;;;;;;;0.96;66.54;101931.83;1755353;81;27362;-73
2022/03/23 04:06:59;;;;;;;96.17;45.00;;;;;;;0.89;66.93;101933.97;1755004;81;25615;-73
2022/03/23 04:09:26;;;;;;;133.30;108.85;;;;;;;0.90;66.88;101936.11;1755112;81;25583;-73
2022/03/23 04:11:52;;;;;;;148.43;109.70;;;;;;;0.84;66.27;101929.77;1755078;81;25632;-73
2022/03/23 04:14:19;;;;;;;140.07;112.88;;;;;;;0.78;65.83;101927.91;1755131;81;25383;-73
2022/03/23 04:16:45;;;;;;;133.43;109.03;;;;;;;0.73;65.97;101931.69;1755086;81;27274;-73
2022/03/23 04:19:11;;;;;;;141.43;109.78;;;;;;;0.68;66.02;101926.15;1754983;81;25821;-73
2022/03/23 04:21:38;;;;;;;130.12;106.43;;;;;;;0.59;66.39;101926.05;1755102;81;25525;-73
2022/03/23 04:24:05;;;;;;;131.20;109.65;;;;;;;0.59;66.39;101926.05;1755052;81;25625;-73
2022/03/23 04:26:31;;;;;;;139.25;110.22;;;;;;;0.53;66.24;101930.34;1755103;81;25546;-73
2022/03/23 04:28:57;;;;;;;142.25;109.52;;;;;;;0.48;65.73;101932.79;1755074;81;27331;-73
2022/03/23 04:31:24;;;;;;;140.15;110.42;;;;;;;0.43;65.61;101936.56;1755019;81;25569;-73
2022/03/23 04:33:50;;;;;;;140.05;108.65;;;;;;;0.34;65.45;101931.42;1755164;81;25374;-73
2022/03/23 04:36:17;;;;;;;131.20;107.25;;;;;;;0.30;65.78;101936.00;1755055;81;26325;-73
2022/03/23 04:38:43;;;;;;;131.87;110.32;;;;;;;0.28;65.94;101948.70;1755084;81;25624;-73
2022/03/23 04:41:10;;;;;;;148.72;109.45;;;;;;;0.28;65.94;101948.70;1755125;81;27944;-73
2022/03/23 04:43:38;;;;;;;137.05;107.67;;;;;;;0.15;65.41;101933.48;1754998;81;25418;-73
2022/03/23 04:46:05;;;;;;;133.15;106.07;;;;;;;0.32;65.73;101961.91;1755087;81;25500;-73
2022/03/23 04:48:32;;;;;;;136.72;106.25;;;;;;;0.08;65.55;101927.33;1755052;81;25827;-72
2022/03/23 04:50:59;;;;;;;132.03;106.78;;;;;;;0.06;65.55;101932.03;1755109;81;25615;-72
2022/03/23 04:53:25;;;;;;;135.63;106.75;;;;;;;0.01;65.73;101925.97;1755073;81;27484;-72
2022/03/23 04:55:52;;;;;;;142.75;106.22;;;;;;;-0.04;65.97;101928.40;1755066;81;25521;-73
2022/03/23 04:58:18;;;;;;;129.45;106.87;;;;;;;-0.07;65.63;101932.30;1755063;81;25597;-73
2022/03/23 05:00:45;;;;;;;143.17;106.95;;;;;;;-0.11;65.94;101928.37;1755106;81;25619;-73
2022/03/23 05:03:13;;;;;;;134.57;107.22;;;;;;;-0.14;65.76;101929.27;1756695;81;25558;-72
2022/03/23 05:05:40;;;;;;;139.25;107.07;;;;;;;-0.16;66.21;101928.66;1762978;81;27309;-72
2022/03/23 05:08:06;;;;;;;127.00;102.35;;;;;;;-0.19;66.06;101928.53;1762834;81;25674;-72
2022/03/23 05:10:33;;;;;;;129.05;104.27;;;;;;;-0.21;66.54;101931.90;1736978;81;25484;-72
2022/03/23 05:13:00;;;;;;;130.03;104.17;;;;;;;-0.22;66.65;101932.94;1762846;81;25601;-72
2022/03/23 05:15:26;;;;;;;125.38;106.92;;;;;;;-0.24;66.54;101931.80;1762910;81;25554;-73
2022/03/23 05:17:53;;;;;;;131.65;102.97;;;;;;;-0.23;66.40;101928.62;1762875;81;27292;-73
2022/03/23 05:20:20;;;;;;;127.75;105.83;;;;;;;-0.25;66.59;101920.84;1762740;81;25551;-73
2022/03/23 05:22:46;;;;;;;129.70;103.62;;;;;;;-0.22;67.66;101925.77;1762824;81;25634;-73
2022/03/23 05:25:13;;;;;;;131.57;106.43;;;;;;;-0.16;68.40;101919.34;1762921;81;25611;-73
2022/03/23 05:27:42;;;;;;;126.40;103.43;;;;;;;-0.06;68.54;101921.94;1737003;81;25216;-73
2022/03/23 05:30:11;;;;;;;101.62;91.32;;;;;;;0.03;69.10;101923.92;1763074;81;27842;-73
2022/03/23 05:32:39;;;;;;;121.28;103.27;;;;;;;0.21;69.48;101922.58;1762752;81;25594;-73
2022/03/23 05:35:08;;;;;;;117.50;102.47;;;;;;;0.32;69.59;101912.17;1762852;81;25573;-73
2022/03/23 05:37:34;;;;;;;90.03;71.93;;;;;;;0.48;69.58;101909.64;1763095;81;26253;-73
2022/03/23 05:40:07;;;;;;;122.22;100.65;;;;;;;0.64;69.57;101912.94;1762859;81;25550;-73
2022/03/23 05:42:33;;;;;;;119.57;103.15;;;;;;;0.78;70.02;101905.26;1762849;81;27354;-73
2022/03/23 05:45:00;;;;;;;125.70;105.10;;;;;;;0.99;70.02;101908.75;1762721;81;25777;-73
2022/03/23 05:47:27;;;;;;;129.87;104.90;;;;;;;1.18;69.90;101903.12;1762879;81;25391;-73
2022/03/23 05:49:54;;;;;;;132.10;107.90;;;;;;;1.39;69.91;101906.06;1762808;81;25766;-73
2022/03/23 05:52:20;;;;;;;146.18;113.45;;;;;;;1.58;69.65;101907.84;1762944;81;25629;-75
2022/03/23 05:54:49;;;;;;;129.82;109.90;;;;;;;1.78;69.44;101904.32;1762928;81;28008;-73
2022/03/23 05:57:15;;;;;;;123.78;109.97;;;;;;;2.00;69.45;101907.52;1762146;81;25691;-73
2022/03/23 05:59:42;;;;;;;132.18;108.03;;;;;;;2.22;69.27;101903.51;1762827;81;25551;-73
2022/03/23 06:02:08;;;;;;;133.32;109.60;;;;;;;2.50;69.11;101903.65;1762878;81;25619;-73
2022/03/23 06:04:35;;;;;;;127.27;109.45;;;;;;;2.77;69.00;101903.47;1757511;81;25443;-75
2022/03/23 06:07:02;;;;;;;135.50;109.32;;;;;;;3.03;68.29;101907.81;1754350;81;27865;-73
2022/03/23 06:09:29;;;;;;;129.25;110.32;;;;;;;3.31;67.92;101910.00;1754323;81;25601;-73
2022/03/23 06:11:56;;;;;;;140.12;111.22;;;;;;;3.56;67.52;101906.48;1754481;81;25615;-73
2022/03/23 06:14:23;;;;;;;125.50;110.50;;;;;;;3.85;66.93;101908.12;1754765;81;25681;-74
2022/03/23 06:16:51;;;;;;;131.57;108.85;;;;;;;4.15;66.65;101910.81;1754542;81;25598;-72
2022/03/23 06:19:17;;;;;;;145.90;118.00;;;;;;;4.43;66.19;101906.22;1754343;81;27323;-72
2022/03/23 06:21:46;;;;;;;127.90;111.88;;;;;;;4.74;65.44;101899.48;1754431;81;25541;-73
2022/03/23 06:24:12;;;;;;;120.70;96.17;;;;;;;5.05;64.97;101901.02;1754512;81;25442;-72
2022/03/23 06:26:41;;;;;;;104.85;56.37;;;;;;;5.40;64.75;101898.88;1754495;81;25610;-72
2022/03/23 06:29:07;;;;;;;116.37;58.48;;;;;;;5.71;63.58;101900.34;1754475;81;25437;-73
2022/03/23 06:31:34;;;;;;;109.12;58.05;;;;;;;6.00;63.85;101891.02;1754469;81;27354;-74
2022/03/23 06:34:03;;;;;;;111.65;58.23;;;;;;;6.39;63.40;101891.20;1754430;81;25641;-73
2022/03/23 06:36:29;;;;;;;100.18;56.13;;;;;;;6.72;61.70;101892.30;1754430;81;25374;-73
2022/03/23 06:38:55;;;;;;;101.30;52.75;;;;;;;6.97;60.07;101893.23;1754487;81;25613;-73
2022/03/23 06:41:21;;;;;;;107.17;56.35;;;;;;;7.24;59.35;101892.57;1754521;81;25453;-74
2022/03/23 06:43:48;;;;;;;102.25;54.05;;;;;;;7.48;59.34;101894.52;1755383;81;27273;-74
2022/03/23 06:46:15;;;;;;;104.15;54.20;;;;;;;7.76;58.95;101900.25;1754923;81;25788;-74
2022/03/23 06:48:42;;;;;;;97.53;52.90;;;;;;;8.15;59.03;101889.38;1754522;81;25614;-74
2022/03/23 06:51:08;;;;;;;93.07;53.40;;;;;;;8.55;57.54;101896.28;1724810;81;25614;-74
2022/03/23 07:31:38;;;;;;;88.12;54.30;;;;;;;13.62;44.46;101882.34;1735522;80;25700;-72
2022/03/23 07:34:08;;;;;;;91.80;51.42;;;;;;;14.02;44.65;101876.66;1808905;79;25573;-73
2022/03/23 07:36:34;;;;;;;;;;;;;;;14.35;42.79;101871.27;1810359;78;25531;-73
2022/03/23 07:39:00;;;;;;;85.47;51.88;;;;;;;14.80;43.21;101873.59;1806232;79;25656;-74
2022/03/23 07:41:27;;;;;;;90.05;52.35;;;;;;;15.26;42.55;101865.94;1806238;79;25649;-73
2022/03/23 07:43:53;;;;;;;85.20;50.52;;;;;;;15.57;41.50;101864.75;1806764;79;27277;-75
2022/03/23 07:46:19;;;;;;;83.90;49.85;;;;;;;15.92;41.01;101865.15;1806135;79;25515;-74
2022/03/23 07:48:45;;;;;;;82.53;47.93;;;;;;;16.27;39.53;101868.16;1806118;79;25594;-74
2022/03/23 07:51:12;;;;;;;71.07;44.42;;;;;;;16.60;39.60;101866.00;1805982;79;25634;-73
2022/03/23 07:53:38;;;;;;;62.48;41.28;;;;;;;17.22;39.44;101864.41;1785944;79;25552;-73
2022/03/23 07:56:05;;;;;;;70.95;43.50;;;;;;;18.01;38.58;101859.14;1806275;79;27301;-73
2022/03/23 07:58:31;;;;;;;64.47;39.60;;;;;;;18.73;36.79;101851.31;1805864;79;25457;-73
2022/03/23 08:00:58;;;;;;;71.20;43.63;;;;;;;19.52;35.68;101860.06;1806057;79;25669;-73
2022/03/23 08:03:24;;;;;;;68.45;41.70;;;;;;;20.44;34.25;101850.95;1806179;79;25671;-73
2022/03/23 08:05:51;;;;;;;67.92;41.20;;;;;;;20.87;32.87;101854.41;1805877;79;25421;-73
2022/03/23 08:08:17;;;;;;;63.87;41.53;;;;;;;21.30;32.00;101849.51;1806229;79;27468;-73
2022/03/23 08:10:43;;;;;;;66.62;41.23;;;;;;;21.97;31.89;101850.01;1806019;79;25674;-73
2022/03/23 08:13:12;;;;;;;67.50;41.00;;;;;;;22.73;31.36;101845.98;1805995;79;25654;-73
2022/03/23 08:15:40;;;;;;;61.15;37.20;;;;;;;23.58;30.36;101847.88;1806189;79;25623;-73
2022/03/23 08:18:07;;;;;;;64.20;40.75;;;;;;;24.41;29.71;101846.20;1806266;79;25442;-73
2022/03/23 08:20:34;;;;;;;62.95;34.95;;;;;;;24.87;28.27;101841.31;1785570;79;27302;-74
2022/03/23 08:23:06;;;;;;;84.65;45.80;;;;;;;25.10;27.08;101849.61;1806100;79;25708;-74
2022/03/23 08:25:37;;;;;;;50.83;32.63;;;;;;;25.10;26.47;101844.66;1806069;79;25690;-74
2022/03/23 08:28:03;;;;;;;55.15;32.67;;;;;;;25.11;25.83;101847.03;1805755;79;25584;-73
2022/03/23 08:30:30;;;;;;;57.48;34.92;;;;;;;24.84;25.86;101835.12;1806188;79;25544;-74
2022/03/23 08:32:56;;;;;;;57.85;36.55;;;;;;;24.91;25.70;101836.66;1803742;79;27326;-74
2022/03/23 08:35:24;;;;;;;52.58;35.03;;;;;;;24.97;25.33;101832.39;1797359;79;25426;-74
2022/03/23 08:37:52;;;;;;;70.17;49.00;;;;;;;25.07;24.91;101827.41;1797565;79;25400;-74
2022/03/23 08:40:18;;;;;;;102.32;92.90;;;;;;;25.35;25.03;101832.59;1797584;79;26158;-73
2022/03/23 08:42:45;;;;;;;58.58;34.53;;;;;;;25.71;24.42;101820.61;1797524;79;25801;-74
2022/03/23 08:45:13;;;;;;;56.00;34.30;;;;;;;26.01;23.96;101829.53;1797995;79;28002;-74
2022/03/23 08:47:40;;;;;;;58.65;37.13;;;;;;;25.97;22.91;101824.55;1797875;79;34783;-73
2022/03/23 08:50:10;;;;;;;94.87;86.00;;;;;;;25.96;22.78;101828.48;1797549;79;25663;-73
2022/03/23 08:52:38;;;;;;;56.77;35.17;;;;;;;26.21;23.30;101817.08;1775298;79;25641;-73
2022/03/23 08:55:09;;;;;;;56.48;34.18;;;;;;;26.63;22.25;101817.92;1798189;79;25543;-74
2022/03/23 08:57:37;;;;;;;71.53;56.10;;;;;;;26.82;22.21;101816.89;1797576;79;28084;-75
2022/03/23 09:00:07;;;;;;;96.63;87.88;;;;;;;27.00;21.87;101810.07;1797978;79;25540;-73
2022/03/23 09:02:33;;;;;;;79.35;66.57;;;;;;;27.17;21.39;101820.50;1797830;79;25628;-75
2022/03/23 09:05:00;;;;;;;60.00;41.00;;;;;;;27.03;20.79;101814.25;1797678;79;25620;-75
2022/03/23 09:07:26;;;;;;;57.08;36.33;;;;;;;27.00;20.80;101805.33;1797940;79;25568;-74
2022/03/23 09:09:53;;;;;;;67.53;52.48;;;;;;;27.25;20.95;101803.30;1775506;79;27383;-75
2022/03/23 09:12:21;;;;;;;63.00;41.05;;;;;;;27.60;20.88;101790.00;1775866;79;25540;-75
2022/03/23 09:14:47;;;;;;;61.83;39.27;;;;;;;28.19;20.65;101794.78;1798746;79;25604;-74
2022/03/23 09:17:14;;;;;;;104.87;94.85;;;;;;;28.37;19.98;101792.64;1797865;79;25759;-73
2022/03/23 09:19:41;;;;;;;70.37;61.63;;;;;;;28.72;19.90;101784.91;1797506;79;25703;-75
2022/03/23 09:22:07;;;;;;;99.95;90.40;;;;;;;28.73;19.35;101784.33;1797839;79;27432;-75
2022/03/23 09:24:33;;;;;;;125.33;114.00;;;;;;;28.68;19.32;101777.95;1798006;79;25448;-74
2022/03/23 09:27:00;;;;;;;114.00;104.23;;;;;;;29.13;19.35;101783.05;1797777;79;25779;-75
2022/03/23 09:30:24;;;;;;;65.60;53.35;;;;;;;29.77;19.04;101786.27;1905568;74;25674;-76
2022/03/23 09:32:51;;;;;;;54.67;35.85;;;;;;;29.80;18.51;101777.09;1859519;76;25416;-76
2022/03/23 09:35:18;;;;;;;70.80;63.33;;;;;;;29.90;18.45;101772.67;1859858;76;27450;-75
2022/03/23 09:37:47;;;;;;;55.78;38.42;;;;;;;30.02;17.80;101767.80;1859636;77;25690;-74
2022/03/23 09:40:31;;;;;;;64.10;48.48;;;;;;;29.91;17.78;101767.88;1858863;77;25611;-75
2022/03/23 09:43:06;;;;;;;56.90;38.88;;;;;;;29.94;17.96;101770.64;1859497;77;25271;-75
2022/03/23 09:45:46;;;;;;;58.50;37.93;;;;;;;29.66;16.95;101768.79;1860491;76;25648;-74
2022/03/23 09:48:09;;;;;;;57.53;38.83;;;;;;;28.99;17.20;101762.20;1858884;76;27633;-75
2022/03/23 09:50:40;;;;;;;58.50;38.28;;;;;;;28.66;17.13;101760.86;1860223;77;25860;-75
2022/03/23 09:53:08;;;;;;;53.75;36.73;;;;;;;28.78;17.51;101751.30;1859913;76;25372;-75
2022/03/23 09:55:36;;;;;;;50.43;34.92;;;;;;;28.48;16.87;101757.25;1860223;76;25600;-75
2022/03/23 09:58:05;;;;;;;52.38;33.38;;;;;;;28.89;17.48;101754.06;1839302;77;25217;-74
2022/03/23 10:00:41;;;;;;;;;;;;;;;29.74;16.07;101750.80;1862990;76;28078;-76
2022/03/23 10:03:54;;;;;;;42.27;30.10;;;;;;;29.75;16.15;101745.43;1859491;76;25691;-76
2022/03/23 10:07:01;;;;;;;49.63;30.35;;;;;;;30.26;16.02;101743.74;1859830;77;25410;-75
2022/03/23 10:13:23;;;;;;;44.63;30.27;;;;;;;32.93;15.26;101739.88;1926042;74;25256;-77
2022/03/23 10:16:43;;;;;;;96.00;87.55;;;;;;;33.67;14.84;101735.17;1894970;75;25599;-76
2022/03/23 10:19:09;;;;;;;42.73;28.40;;;;;;;34.16;13.75;101733.06;1894477;75;27615;-75
2022/03/23 10:21:39;;;;;;;41.88;26.50;;;;;;;34.20;13.34;101728.17;1894628;75;25640;-75
2022/03/23 10:24:11;;;;;;;37.93;26.90;;;;;;;34.19;13.26;101714.72;1894803;75;25509;-74
2022/03/23 10:26:40;;;;;;;47.33;40.38;;;;;;;34.78;13.10;101711.41;1894533;75;25582;-75
2022/03/23 10:33:24;;;;;;;33.70;24.95;;;;;;;36.50;10.79;101705.13;1885339;76;25639;-75
2022/03/23 10:35:51;;;;;;;;;;;;;;;36.63;11.75;101694.60;1790468;80;25648;-75
2022/03/23 10:38:22;;;;;;;30.90;25.40;;;;;;;36.57;11.30;101688.75;1804131;79;28082;-76
2022/03/23 10:40:52;;;;;;;33.45;23.55;;;;;;;36.53;11.81;101688.73;1787795;80;25604;-75
2022/03/23 10:43:25;;;;;;;33.15;22.42;;;;;;;36.87;11.43;101686.50;1821432;78;25600;-75
2022/03/23 10:45:55;;;;;;;23.90;18.48;;;;;;;36.80;11.39;101682.55;1785749;80;25566;-76
2022/03/23 10:48:21;;;;;;;22.58;16.32;;;;;;;36.63;10.28;101681.29;1820266;78;25593;-71
2022/03/23 10:51:34;;;;;;;20.52;16.07;;;;;;;36.19;10.88;101674.80;1905043;74;26615;-69
2022/03/23 10:54:16;;;;;;;21.20;18.85;;;;;;;35.65;11.27;101668.88;1789338;80;25625;-67
2022/03/23 10:56:42;;;;;;;29.32;18.55;;;;;;;34.50;11.12;101668.64;1807609;79;28368;-74
2022/03/23 10:59:22;;;;;;;26.23;19.35;;;;;;;32.60;12.23;101668.84;1789718;79;25642;-76
2022/03/23 11:02:08;;;;;;;23.45;17.65;;;;;;;31.22;12.57;101661.61;1810298;79;25756;-75
2022/03/23 11:04:52;;;;;;;24.30;18.23;;;;;;;30.22;12.86;101665.62;1810403;79;25704;-74
2022/03/23 11:07:30;;;;;;;24.05;17.35;;;;;;;29.68;13.65;101663.81;1810698;79;25458;-75
2022/03/23 11:15:46;;;;;;;20.68;16.87;;;;;;;28.84;14.79;101651.45;1789354;80;25530;-73
2022/03/23 11:18:17;;;;;;;23.83;17.35;;;;;;;28.39;13.96;101638.62;1810446;79;25573;-73
2022/03/23 11:20:51;;;;;;;23.10;16.30;;;;;;;28.37;13.96;101647.97;1789469;80;25571;-72
2022/03/23 11:23:27;;;;;;;18.12;14.45;;;;;;;28.34;14.56;101643.98;1810140;79;27592;-72
2022/03/23 11:26:00;;;;;;;20.12;15.25;;;;;;;28.39;14.60;101639.41;1810263;79;25824;-72
2022/03/23 11:28:32;;;;;;;17.50;13.53;;;;;;;28.24;14.17;101631.67;1810398;78;25476;-72
2022/03/23 11:31:00;;;;;;;19.15;14.85;;;;;;;28.50;13.93;101631.03;1810061;78;25692;-73
2022/03/23 11:33:29;;;;;;;19.45;13.05;;;;;;;28.63;13.56;101628.05;1810326;79;25636;-71
2022/03/23 11:35:55;;;;;;;17.03;13.13;;;;;;;28.60;13.57;101621.11;1810530;78;28244;-71
2022/03/23 11:38:26;;;;;;;20.17;13.35;;;;;;;28.54;13.79;101609.57;1809956;79;25433;-71
2022/03/23 11:40:54;;;;;;;17.92;13.85;;;;;;;28.80;13.69;101607.53;1789559;80;25619;-71
2022/03/23 11:43:25;;;;;;;20.30;13.60;;;;;;;28.83;13.04;101599.16;1804215;79;25619;-71
2022/03/23 11:45:55;;;;;;;17.50;12.90;;;;;;;28.46;13.03;101605.21;1789249;80;25388;-71
2022/03/23 11:48:35;;;;;;;22.48;15.38;;;;;;;28.26;13.19;101593.72;1810372;79;27517;-75
2022/03/23 11:51:32;;;;;;;17.50;14.10;;;;;;;28.35;12.89;101585.77;1788855;80;25397;-74
2022/03/23 11:55:37;;;;;;;22.37;14.45;;;;;;;27.82;13.06;101581.83;1711584;83;26460;-73
2022/03/23 11:56:58;;;;;;;20.52;15.50;;;;;;;27.54;13.47;101575.64;1711939;83;25523;-74
2022/03/23 11:59:29;;;;;;;28.67;17.92;;;;;;;27.21;13.27;101572.77;1711910;83;25679;-74
2022/03/23 12:01:58;;;;;;;32.90;20.23;;;;;;;27.09;13.66;101577.30;1711253;83;28113;-73
2022/03/23 12:04:28;;;;;;;24.65;16.48;;;;;;;27.20;14.06;101567.00;1711237;83;25662;-74
2022/03/23 12:07:04;;;;;;;20.37;15.72;;;;;;;27.33;13.65;101563.91;1711339;83;25665;-73
2022/03/23 12:09:44;;;;;;;21.17;17.20;;;;;;;27.38;13.71;101559.36;1711331;83;25466;-74
2022/03/23 12:12:32;;;;;;;24.55;15.55;;;;;;;27.78;14.10;101564.94;1711533;83;25686;-73
2022/03/23 12:15:24;;;;;;;21.55;15.60;;;;;;;27.83;13.47;101551.42;1711344;83;27597;-74
2022/03/23 12:17:59;;;;;;;21.45;14.87;;;;;;;28.00;13.54;101552.64;1711311;83;25702;-74
2022/03/23 12:20:37;;;;;;;19.57;15.28;;;;;;;27.91;13.13;101554.41;1711368;83;25586;-74
2022/03/23 12:23:53;;;;;;;20.35;15.05;;;;;;;27.88;13.40;101541.30;1711013;83;26537;-73
2022/03/23 12:26:40;;;;;;;20.37;15.58;;;;;;;28.33;13.07;101539.45;1722351;83;25789;-73
2022/03/23 12:29:27;;;;;;;26.07;16.17;;;;;;;28.56;13.44;101526.50;1730811;82;27464;-73
2022/03/23 12:32:08;;;;;;;22.93;17.20;;;;;;;28.64;13.06;101526.67;1731914;82;25671;-73
2022/03/23 12:34:40;;;;;;;23.57;17.17;;;;;;;28.06;12.75;101533.55;1731690;82;25699;-73
2022/03/23 12:37:12;;;;;;;23.05;16.48;;;;;;;27.75;13.22;101513.70;1731438;82;25838;-73
2022/03/23 12:39:43;;;;;;;27.75;17.80;;;;;;;28.02;13.36;101509.14;1730459;81;25627;-73
2022/03/23 12:42:18;;;;;;;26.33;18.17;;;;;;;28.44;13.53;101510.23;1731799;82;27463;-73
2022/03/23 12:44:49;;;;;;;25.02;18.32;;;;;;;28.57;12.34;101512.80;1728481;82;26232;-74
2022/03/23 12:47:22;;;;;;;34.27;26.62;;;;;;;28.39;13.08;101505.86;1731954;82;25662;-74
2022/03/23 12:58:26;;;;;;;26.12;17.77;;;;;;;27.18;12.55;101479.14;1826642;78;25581;-72